createdAt,value
2016-12-07T00:00:21.157Z,1028.02
2016-12-07T00:01:30.455Z,1028.04
2016-12-07T00:02:40.082Z,1028.07
2016-12-07T00:03:49.076Z,1028.07
2016-12-07T00:04:58.070Z,1028.07
2016-12-07T00:06:07.065Z,1028.08
2016-12-07T00:07:16.366Z,1028.09
2016-12-07T00:08:25.681Z,1028.06
2016-12-07T00:09:34.685Z,1028.05
2016-12-07T00:10:43.978Z,1027.98
2016-12-07T00:11:52.994Z,1027.94
2016-12-07T00:13:01.690Z,1027.95
2016-12-07T00:14:10.685Z,1027.97
2016-12-07T00:15:19.975Z,1027.98
2016-12-07T00:16:30.377Z,1027.97
2016-12-07T00:17:39.442Z,1027.97
2016-12-07T00:18:48.435Z,1027.97
2016-12-07T00:19:57.128Z,1027.97
2016-12-07T00:21:06.734Z,1027.97
2016-12-07T00:22:16.364Z,1027.9
2016-12-07T00:23:25.066Z,1027.93
2016-12-07T00:24:34.068Z,1027.92
2016-12-07T00:25:43.375Z,1027.9
2016-12-07T00:26:52.351Z,1027.84
2016-12-07T00:28:01.676Z,1027.89
2016-12-07T00:29:10.674Z,1027.85
2016-12-07T00:30:20.282Z,1027.87
2016-12-07T00:31:28.970Z,1027.87
2016-12-07T00:32:37.965Z,1027.84
2016-12-07T00:33:46.973Z,1027.84
2016-12-07T00:34:56.157Z,1027.87
2016-12-07T00:36:04.833Z,1027.84
2016-12-07T00:37:13.523Z,1027.86
2016-12-07T00:38:23.431Z,1027.82
2016-12-07T00:39:32.723Z,1027.81
2016-12-07T00:40:42.024Z,1027.82
2016-12-07T00:41:51.305Z,1027.83
2016-12-07T00:43:00.656Z,1027.79
2016-12-07T00:44:09.671Z,1027.78
2016-12-07T00:45:18.975Z,1027.72
2016-12-07T00:46:27.672Z,1027.76
2016-12-07T00:47:36.651Z,1027.73
2016-12-07T00:48:45.944Z,1027.67
2016-12-07T00:49:54.614Z,1027.63
2016-12-07T00:51:03.317Z,1027.67
2016-12-07T00:52:12.000Z,1027.64
2016-12-07T00:53:20.978Z,1027.59
2016-12-07T00:54:30.588Z,1027.64
2016-12-07T00:55:39.274Z,1027.64
2016-12-07T00:56:48.263Z,1027.62
2016-12-07T00:57:57.252Z,1027.58
2016-12-07T00:59:06.549Z,1027.55
2016-12-07T01:00:15.856Z,1027.57
2016-12-07T01:01:25.149Z,1027.53
2016-12-07T01:02:33.843Z,1027.53
2016-12-07T01:03:43.446Z,1027.51
2016-12-07T01:04:52.453Z,1027.51
2016-12-07T01:06:01.435Z,1027.51
2016-12-07T01:07:10.729Z,1027.48
2016-12-07T01:08:19.738Z,1027.46
2016-12-07T01:09:28.411Z,1027.4
2016-12-07T01:10:37.414Z,1027.38
2016-12-07T01:11:46.092Z,1027.4
2016-12-07T01:12:55.383Z,1027.43
2016-12-07T01:14:04.683Z,1027.39
2016-12-07T01:15:13.370Z,1027.39
2016-12-07T01:16:22.380Z,1027.37
2016-12-07T01:17:31.669Z,1027.38
2016-12-07T01:18:41.270Z,1027.39
2016-12-07T01:19:50.558Z,1027.4
2016-12-07T01:21:00.462Z,1027.41
2016-12-07T01:22:09.762Z,1027.43
2016-12-07T01:23:19.053Z,1027.46
2016-12-07T01:24:28.029Z,1027.49
2016-12-07T01:25:36.705Z,1027.48
2016-12-07T01:26:45.415Z,1027.5
2016-12-07T01:27:54.707Z,1027.47
2016-12-07T01:29:04.002Z,1027.46
2016-12-07T01:30:12.687Z,1027.52
2016-12-07T01:31:21.998Z,1027.5
2016-12-07T01:32:30.676Z,1027.49
2016-12-07T01:33:39.987Z,1027.5
2016-12-07T01:34:48.666Z,1027.53
2016-12-07T01:35:57.366Z,1027.51
2016-12-07T01:37:06.661Z,1027.48
2016-12-07T01:38:15.336Z,1027.5
2016-12-07T01:39:24.633Z,1027.54
2016-12-07T01:40:33.313Z,1027.58
2016-12-07T01:41:42.004Z,1027.57
2016-12-07T01:42:50.990Z,1027.59
2016-12-07T01:43:59.978Z,1027.58
2016-12-07T01:45:08.700Z,1027.63
2016-12-07T01:46:17.391Z,1027.61
2016-12-07T01:47:26.386Z,1027.64
2016-12-07T01:48:35.990Z,1027.58
2016-12-07T01:49:44.679Z,1027.59
2016-12-07T01:50:53.364Z,1027.56
2016-12-07T01:52:02.661Z,1027.61
2016-12-07T01:53:11.352Z,1027.62
2016-12-07T01:54:20.037Z,1027.62
2016-12-07T01:55:29.360Z,1027.65
2016-12-07T01:56:38.342Z,1027.65
2016-12-07T01:57:47.946Z,1027.68
2016-12-07T01:58:56.622Z,1027.64
2016-12-07T02:00:05.319Z,1027.64
2016-12-07T02:01:14.708Z,1027.57
2016-12-07T02:02:23.411Z,1027.59
2016-12-07T02:03:32.408Z,1027.62
2016-12-07T02:04:41.084Z,1027.67
2016-12-07T02:05:50.077Z,1027.59
2016-12-07T02:06:58.751Z,1027.65
2016-12-07T02:08:07.739Z,1027.69
2016-12-07T02:09:16.723Z,1027.72
2016-12-07T02:10:26.023Z,1027.76
2016-12-07T02:11:35.319Z,1027.81
2016-12-07T02:12:44.322Z,1027.8
2016-12-07T02:13:53.646Z,1027.84
2016-12-07T02:15:03.558Z,1027.81
2016-12-07T02:16:12.239Z,1027.72
2016-12-07T02:17:21.230Z,1027.72
2016-12-07T02:18:30.250Z,1027.68
2016-12-07T02:19:39.244Z,1027.72
2016-12-07T02:20:48.236Z,1027.73
2016-12-07T02:21:57.535Z,1027.78
2016-12-07T02:23:06.256Z,1027.79
2016-12-07T02:24:15.631Z,1027.79
2016-12-07T02:25:24.319Z,1027.81
2016-12-07T02:26:33.307Z,1027.8
2016-12-07T02:27:42.603Z,1027.79
2016-12-07T02:28:51.613Z,1027.85
2016-12-07T02:30:00.920Z,1027.84
2016-12-07T02:31:10.221Z,1027.81
2016-12-07T02:32:18.926Z,1027.82
2016-12-07T02:33:28.217Z,1027.84
2016-12-07T02:34:37.813Z,1027.81
2016-12-07T02:35:46.494Z,1027.82
2016-12-07T02:36:55.190Z,1027.84
2016-12-07T02:38:04.173Z,1027.84
2016-12-07T02:39:13.159Z,1027.81
2016-12-07T02:40:21.850Z,1027.84
2016-12-07T02:41:30.526Z,1027.81
2016-12-07T02:42:39.225Z,1027.85
2016-12-07T02:43:47.943Z,1027.84
2016-12-07T02:44:57.239Z,1027.81
2016-12-07T02:46:06.247Z,1027.81
2016-12-07T02:47:15.238Z,1027.83
2016-12-07T02:48:24.242Z,1027.79
2016-12-07T02:49:32.921Z,1027.8
2016-12-07T02:51:13.687Z,1027.74
2016-12-07T02:52:22.989Z,1027.71
2016-12-07T02:53:31.673Z,1027.74
2016-12-07T02:54:40.365Z,1027.69
2016-12-07T02:55:49.655Z,1027.71
2016-12-07T02:56:58.944Z,1027.64
2016-12-07T02:58:07.654Z,1027.65
2016-12-07T02:59:17.013Z,1027.67
2016-12-07T03:00:26.018Z,1027.64
2016-12-07T03:01:35.307Z,1027.68
2016-12-07T03:02:44.603Z,1027.62
2016-12-07T03:03:54.208Z,1027.62
2016-12-07T03:05:03.215Z,1027.63
2016-12-07T03:06:12.521Z,1027.57
2016-12-07T03:07:21.517Z,1027.58
2016-12-07T03:08:30.192Z,1027.61
2016-12-07T03:09:39.491Z,1027.69
2016-12-07T03:10:48.784Z,1027.72
2016-12-07T03:11:57.797Z,1027.75
2016-12-07T03:13:07.477Z,1027.78
2016-12-07T03:14:16.465Z,1027.81
2016-12-07T03:15:26.115Z,1027.82
2016-12-07T03:16:34.822Z,1027.84
2016-12-07T03:17:43.511Z,1027.86
2016-12-07T03:18:52.196Z,1027.85
2016-12-07T03:20:01.794Z,1027.8
2016-12-07T03:21:10.625Z,1027.88
2016-12-07T03:22:19.625Z,1027.86
2016-12-07T03:23:28.918Z,1027.84
2016-12-07T03:24:37.586Z,1027.86
2016-12-07T03:25:46.601Z,1027.85
2016-12-07T03:26:55.640Z,1027.79
2016-12-07T03:28:04.620Z,1027.75
2016-12-07T03:29:13.607Z,1027.73
2016-12-07T03:30:22.296Z,1027.76
2016-12-07T03:31:31.593Z,1027.73
2016-12-07T03:32:40.890Z,1027.71
2016-12-07T03:33:50.197Z,1027.69
2016-12-07T03:34:59.190Z,1027.71
2016-12-07T03:36:07.868Z,1027.71
2016-12-07T03:37:17.497Z,1027.7
2016-12-07T03:38:26.336Z,1027.73
2016-12-07T03:39:35.331Z,1027.7
2016-12-07T03:40:45.327Z,1027.74
2016-12-07T03:41:54.467Z,1027.74
2016-12-07T03:43:03.286Z,1027.77
2016-12-07T03:44:12.278Z,1027.76
2016-12-07T03:45:21.875Z,1027.76
2016-12-07T03:46:30.847Z,1027.71
2016-12-07T03:47:40.157Z,1027.69
2016-12-07T03:48:49.453Z,1027.75
2016-12-07T03:49:58.137Z,1027.75
2016-12-07T03:51:07.433Z,1027.71
2016-12-07T03:52:16.127Z,1027.8
2016-12-07T03:53:25.130Z,1027.77
2016-12-07T03:54:34.182Z,1027.74
2016-12-07T03:55:43.768Z,1027.75
2016-12-07T03:56:52.445Z,1027.7
2016-12-07T03:58:01.748Z,1027.72
2016-12-07T03:59:11.052Z,1027.69
2016-12-07T04:00:20.342Z,1027.63
2016-12-07T04:01:29.323Z,1027.67
2016-12-07T04:02:38.005Z,1027.68
2016-12-07T04:03:47.003Z,1027.67
2016-12-07T04:04:56.306Z,1027.68
2016-12-07T04:06:05.919Z,1027.62
2016-12-07T04:07:14.756Z,1027.65
2016-12-07T04:08:23.444Z,1027.64
2016-12-07T04:09:32.750Z,1027.61
2016-12-07T04:10:41.436Z,1027.57
2016-12-07T04:11:50.117Z,1027.57
2016-12-07T04:12:58.808Z,1027.57
2016-12-07T04:14:07.506Z,1027.57
2016-12-07T04:15:16.202Z,1027.53
2016-12-07T04:16:25.189Z,1027.53
2016-12-07T04:17:34.801Z,1027.51
2016-12-07T04:18:44.148Z,1027.5
2016-12-07T04:19:52.827Z,1027.5
2016-12-07T04:21:02.117Z,1027.48
2016-12-07T04:22:11.105Z,1027.47
2016-12-07T04:23:20.096Z,1027.53
2016-12-07T04:24:28.870Z,1027.47
2016-12-07T04:25:37.846Z,1027.45
2016-12-07T04:26:47.148Z,1027.46
2016-12-07T04:27:55.884Z,1027.39
2016-12-07T04:29:04.887Z,1027.4
2016-12-07T04:30:13.576Z,1027.37
2016-12-07T04:31:22.287Z,1027.36
2016-12-07T04:32:30.976Z,1027.31
2016-12-07T04:33:40.268Z,1027.3
2016-12-07T04:34:49.854Z,1027.3
2016-12-07T04:35:59.143Z,1027.27
2016-12-07T04:37:08.139Z,1027.26
2016-12-07T04:38:17.150Z,1027.27
2016-12-07T04:39:25.844Z,1027.22
2016-12-07T04:40:34.512Z,1027.23
2016-12-07T04:41:44.113Z,1027.17
2016-12-07T04:42:53.111Z,1027.19
2016-12-07T04:44:02.114Z,1027.16
2016-12-07T04:45:11.116Z,1027.17
2016-12-07T04:46:20.095Z,1027.15
2016-12-07T04:47:28.792Z,1027.15
2016-12-07T04:48:38.099Z,1027.17
2016-12-07T04:49:47.721Z,1027.17
2016-12-07T04:50:56.713Z,1027.13
2016-12-07T04:52:05.408Z,1027.13
2016-12-07T04:53:15.317Z,1027.14
2016-12-07T04:54:23.988Z,1027.2
2016-12-07T04:55:33.284Z,1027.15
2016-12-07T04:56:42.901Z,1027.12
2016-12-07T04:57:51.890Z,1027.16
2016-12-07T04:59:01.029Z,1027.16
2016-12-07T05:00:10.019Z,1027.15
2016-12-07T05:01:19.316Z,1027.15
2016-12-07T05:02:27.987Z,1027.15
2016-12-07T05:03:36.971Z,1027.13
2016-12-07T05:04:46.571Z,1027.17
2016-12-07T05:05:55.892Z,1027.17
2016-12-07T05:07:05.192Z,1027.12
2016-12-07T05:08:14.185Z,1027.18
2016-12-07T05:09:23.178Z,1027.17
2016-12-07T05:10:32.163Z,1027.14
2016-12-07T05:11:40.848Z,1027.2
2016-12-07T05:12:49.833Z,1027.15
2016-12-07T05:13:58.816Z,1027.16
2016-12-07T05:15:07.798Z,1027.15
2016-12-07T05:16:17.118Z,1027.17
2016-12-07T05:17:26.103Z,1027.17
2016-12-07T05:18:35.693Z,1027.18
2016-12-07T05:19:44.686Z,1027.18
2016-12-07T05:20:54.029Z,1027.19
2016-12-07T05:22:03.339Z,1027.21
2016-12-07T05:23:12.326Z,1027.21
2016-12-07T05:24:21.005Z,1027.23
2016-12-07T05:25:30.000Z,1027.23
2016-12-07T05:26:38.998Z,1027.24
2016-12-07T05:27:48.295Z,1027.23
2016-12-07T05:28:56.986Z,1027.25
2016-12-07T05:30:06.294Z,1027.28
2016-12-07T05:31:15.277Z,1027.26
2016-12-07T05:32:24.263Z,1027.22
2016-12-07T05:33:33.398Z,1027.21
2016-12-07T05:34:42.378Z,1027.18
2016-12-07T05:35:51.058Z,1027.15
2016-12-07T05:36:59.746Z,1027.12
2016-12-07T05:38:09.342Z,1027.15
2016-12-07T05:39:18.367Z,1027.13
2016-12-07T05:40:27.364Z,1027.2
2016-12-07T05:41:36.687Z,1027.19
2016-12-07T05:42:45.690Z,1027.14
2016-12-07T05:43:54.979Z,1027.1
2016-12-07T05:45:04.583Z,1027.16
2016-12-07T05:46:13.898Z,1027.12
2016-12-07T05:47:23.191Z,1027.15
2016-12-07T05:48:32.179Z,1027.16
2016-12-07T05:49:40.859Z,1027.06
2016-12-07T05:50:50.309Z,1027.06
2016-12-07T05:51:59.309Z,1027.04
2016-12-07T05:53:07.991Z,1027.05
2016-12-07T05:54:16.981Z,1027.02
2016-12-07T05:55:25.671Z,1027.03
2016-12-07T05:56:35.265Z,1027
2016-12-07T05:57:44.556Z,1027
2016-12-07T05:58:53.553Z,1027
2016-12-07T06:00:02.239Z,1026.94
2016-12-07T06:01:11.231Z,1026.95
2016-12-07T06:02:20.320Z,1026.95
2016-12-07T06:03:29.307Z,1026.98
2016-12-07T06:04:38.312Z,1026.97
2016-12-07T06:05:47.316Z,1027.06
2016-12-07T06:06:56.301Z,1027.02
2016-12-07T06:08:05.937Z,1026.99
2016-12-07T06:09:15.534Z,1027.02
2016-12-07T06:10:24.212Z,1027
2016-12-07T06:11:33.215Z,1027.06
2016-12-07T06:12:41.891Z,1027.07
2016-12-07T06:13:51.785Z,1027.01
2016-12-07T06:15:00.800Z,1027.02
2016-12-07T06:16:10.705Z,1026.99
2016-12-07T06:17:19.717Z,1026.97
2016-12-07T06:18:29.008Z,1026.98
2016-12-07T06:19:38.302Z,1026.98
2016-12-07T06:20:47.923Z,1026.97
2016-12-07T06:21:56.645Z,1026.93
2016-12-07T06:23:05.644Z,1026.98
2016-12-07T06:24:14.322Z,1026.93
2016-12-07T06:25:23.932Z,1026.92
2016-12-07T06:26:32.937Z,1026.94
2016-12-07T06:27:41.627Z,1026.94
2016-12-07T06:28:50.616Z,1026.93
2016-12-07T06:29:59.917Z,1026.95
2016-12-07T06:31:09.256Z,1026.91
2016-12-07T06:32:18.248Z,1026.88
2016-12-07T06:33:26.969Z,1026.86
2016-12-07T06:34:36.256Z,1026.91
2016-12-07T06:35:45.256Z,1026.9
2016-12-07T06:36:54.893Z,1026.96
2016-12-07T06:38:04.006Z,1026.97
2016-12-07T06:39:13.313Z,1026.93
2016-12-07T06:40:22.308Z,1026.89
2016-12-07T06:41:31.907Z,1026.93
2016-12-07T06:42:41.255Z,1026.94
2016-12-07T06:43:49.925Z,1026.91
2016-12-07T06:44:59.554Z,1026.91
2016-12-07T06:46:08.544Z,1026.93
2016-12-07T06:47:17.887Z,1026.87
2016-12-07T06:48:26.724Z,1026.9
2016-12-07T06:49:35.426Z,1026.91
2016-12-07T06:50:44.436Z,1026.9
2016-12-07T06:51:53.453Z,1026.89
2016-12-07T06:53:02.175Z,1026.89
2016-12-07T06:54:11.464Z,1026.89
2016-12-07T06:55:20.168Z,1026.88
2016-12-07T06:56:29.155Z,1026.9
2016-12-07T06:57:38.457Z,1026.95
2016-12-07T06:58:47.138Z,1026.98
2016-12-07T06:59:56.285Z,1027
2016-12-07T07:01:05.307Z,1027.05
2016-12-07T07:02:13.996Z,1027.13
2016-12-07T07:03:22.993Z,1027.11
2016-12-07T07:04:31.986Z,1027.19
2016-12-07T07:05:41.083Z,1027.18
2016-12-07T07:06:50.090Z,1027.2
2016-12-07T07:07:59.077Z,1027.24
2016-12-07T07:09:08.679Z,1027.18
2016-12-07T07:10:17.666Z,1027.22
2016-12-07T07:11:27.098Z,1027.22
2016-12-07T07:12:36.119Z,1027.18
2016-12-07T07:13:45.485Z,1027.15
2016-12-07T07:14:54.490Z,1027.12
2016-12-07T07:16:03.479Z,1027.11
2016-12-07T07:17:12.471Z,1027.13
2016-12-07T07:18:21.182Z,1027.16
2016-12-07T07:19:29.864Z,1027.15
2016-12-07T07:20:39.466Z,1027.11
2016-12-07T07:21:48.767Z,1027.16
2016-12-07T07:22:58.235Z,1027.13
2016-12-07T07:24:07.555Z,1027.14
2016-12-07T07:25:16.254Z,1027.11
2016-12-07T07:26:25.546Z,1027.14
2016-12-07T07:27:34.248Z,1027.14
2016-12-07T07:28:43.562Z,1027.14
2016-12-07T07:29:52.249Z,1027.21
2016-12-07T07:31:01.242Z,1027.16
2016-12-07T07:32:10.554Z,1027.17
2016-12-07T07:33:19.565Z,1027.22
2016-12-07T07:34:29.033Z,1027.17
2016-12-07T07:35:38.032Z,1027.18
2016-12-07T07:36:46.734Z,1027.2
2016-12-07T07:37:55.730Z,1027.18
2016-12-07T07:39:04.735Z,1027.22
2016-12-07T07:40:14.641Z,1027.17
2016-12-07T07:41:23.356Z,1027.2
2016-12-07T07:42:32.108Z,1027.19
2016-12-07T07:43:41.530Z,1027.16
2016-12-07T07:44:50.228Z,1027.16
2016-12-07T07:45:59.344Z,1027.06
2016-12-07T07:47:08.347Z,1027.15
2016-12-07T07:48:17.036Z,1027.1
2016-12-07T07:49:26.423Z,1027.09
2016-12-07T07:50:35.438Z,1027.06
2016-12-07T07:51:44.632Z,1027.16
2016-12-07T07:52:53.729Z,1027.17
2016-12-07T07:54:02.732Z,1027.18
2016-12-07T07:55:11.838Z,1027.22
2016-12-07T07:56:20.573Z,1027.24
2016-12-07T07:57:29.458Z,1027.22
2016-12-07T07:58:38.819Z,1027.21
2016-12-07T07:59:48.145Z,1027.21
2016-12-07T08:00:57.146Z,1027.2
2016-12-07T08:02:05.847Z,1027.15
2016-12-07T08:03:15.461Z,1027.2
2016-12-07T08:04:24.486Z,1027.23
2016-12-07T08:05:33.809Z,1027.2
2016-12-07T08:06:42.803Z,1027.25
2016-12-07T08:07:51.544Z,1027.26
2016-12-07T08:09:00.237Z,1027.24
2016-12-07T08:10:09.307Z,1027.2
2016-12-07T08:11:18.307Z,1027.23
2016-12-07T08:12:27.626Z,1027.25
2016-12-07T08:13:36.607Z,1027.25
2016-12-07T08:14:46.209Z,1027.3
2016-12-07T08:15:55.501Z,1027.36
2016-12-07T08:17:04.537Z,1027.37
2016-12-07T08:18:13.253Z,1027.4
2016-12-07T08:19:22.879Z,1027.44
2016-12-07T08:20:32.486Z,1027.47
2016-12-07T08:21:41.471Z,1027.49
2016-12-07T08:22:50.179Z,1027.51
2016-12-07T08:23:59.482Z,1027.56
2016-12-07T08:25:08.167Z,1027.56
2016-12-07T08:26:16.864Z,1027.55
2016-12-07T08:27:25.600Z,1027.6
2016-12-07T08:28:34.623Z,1027.59
2016-12-07T08:29:43.622Z,1027.64
2016-12-07T08:30:52.933Z,1027.66
2016-12-07T08:32:02.292Z,1027.72
2016-12-07T08:33:12.216Z,1027.72
2016-12-07T08:34:21.246Z,1027.75
2016-12-07T08:35:30.246Z,1027.74
2016-12-07T08:36:39.550Z,1027.75
2016-12-07T08:37:49.000Z,1027.74
2016-12-07T08:38:57.729Z,1027.77
2016-12-07T08:40:06.425Z,1027.74
2016-12-07T08:41:16.048Z,1027.78
2016-12-07T08:42:24.746Z,1027.82
2016-12-07T08:43:33.911Z,1027.86
2016-12-07T08:44:42.613Z,1027.87
2016-12-07T08:45:51.631Z,1027.91
2016-12-07T08:47:00.627Z,1027.88
2016-12-07T08:48:09.626Z,1027.85
2016-12-07T08:49:18.924Z,1027.85
2016-12-07T08:50:28.216Z,1027.86
2016-12-07T08:51:37.215Z,1027.77
2016-12-07T08:52:45.897Z,1027.74
2016-12-07T08:53:54.912Z,1027.75
2016-12-07T08:55:03.707Z,1027.75
2016-12-07T08:56:13.008Z,1027.72
2016-12-07T08:57:21.695Z,1027.67
2016-12-07T08:58:31.001Z,1027.68
2016-12-07T08:59:40.058Z,1027.66
2016-12-07T09:00:49.465Z,1027.69
2016-12-07T09:01:58.773Z,1027.66
2016-12-07T09:03:08.091Z,1027.73
2016-12-07T09:04:17.087Z,1027.72
2016-12-07T09:05:25.776Z,1027.73
2016-12-07T09:06:35.078Z,1027.74
2016-12-07T09:07:43.784Z,1027.75
2016-12-07T09:08:52.474Z,1027.84
2016-12-07T09:10:01.764Z,1027.82
2016-12-07T09:11:11.089Z,1027.84
2016-12-07T09:12:20.551Z,1027.87
2016-12-07T09:13:30.168Z,1027.87
2016-12-07T09:14:39.471Z,1027.91
2016-12-07T09:15:48.159Z,1027.92
2016-12-07T09:16:56.848Z,1027.99
2016-12-07T09:18:06.305Z,1027.99
2016-12-07T09:19:15.606Z,1027.96
2016-12-07T09:20:24.301Z,1028.02
2016-12-07T09:21:33.605Z,1028.01
2016-12-07T09:22:42.919Z,1028.03
2016-12-07T09:23:52.057Z,1028.06
2016-12-07T09:25:01.040Z,1028.09
2016-12-07T09:26:10.355Z,1028.09
2016-12-07T09:27:19.972Z,1028.09
2016-12-07T09:28:28.664Z,1028.11
2016-12-07T09:29:38.075Z,1028.11
2016-12-07T09:30:47.055Z,1028.13
2016-12-07T09:31:56.046Z,1028.19
2016-12-07T09:33:05.035Z,1028.13
2016-12-07T09:34:14.357Z,1028.21
2016-12-07T09:35:23.353Z,1028.22
2016-12-07T09:36:32.347Z,1028.21
2016-12-07T09:37:41.337Z,1028.19
2016-12-07T09:38:50.376Z,1028.22
2016-12-07T09:39:59.411Z,1028.22
2016-12-07T09:41:09.034Z,1028.23
2016-12-07T09:42:18.043Z,1028.22
2016-12-07T09:43:27.040Z,1028.21
2016-12-07T09:44:36.375Z,1028.2
2016-12-07T09:45:45.723Z,1028.21
2016-12-07T09:46:54.706Z,1028.17
2016-12-07T09:48:04.040Z,1028.16
2016-12-07T09:49:13.340Z,1028.14
2016-12-07T09:50:22.334Z,1028.13
2016-12-07T09:51:31.968Z,1028.09
2016-12-07T09:52:41.766Z,1028.12
2016-12-07T09:53:50.470Z,1028.09
2016-12-07T09:54:59.171Z,1028.08
2016-12-07T09:56:08.175Z,1028.12
2016-12-07T09:57:17.499Z,1028.03
2016-12-07T09:58:26.566Z,1028.05
2016-12-07T09:59:35.255Z,1027.98
2016-12-07T10:00:44.261Z,1028
2016-12-07T10:01:53.265Z,1027.98
2016-12-07T10:03:02.570Z,1027.99
2016-12-07T10:04:11.916Z,1027.92
2016-12-07T10:05:20.912Z,1027.99
2016-12-07T10:06:29.600Z,1028
2016-12-07T10:07:38.610Z,1027.97
2016-12-07T10:08:47.603Z,1028.04
2016-12-07T10:09:56.345Z,1027.93
2016-12-07T10:11:05.079Z,1027.98
2016-12-07T10:12:14.078Z,1027.91
2016-12-07T10:13:22.777Z,1027.87
2016-12-07T10:14:31.801Z,1027.82
2016-12-07T10:15:40.843Z,1027.81
2016-12-07T10:16:49.859Z,1027.77
2016-12-07T10:17:58.558Z,1027.75
2016-12-07T10:19:07.270Z,1027.74
2016-12-07T10:20:16.286Z,1027.66
2016-12-07T10:21:25.279Z,1027.62
2016-12-07T10:22:34.278Z,1027.61
2016-12-07T10:23:43.267Z,1027.6
2016-12-07T10:24:52.319Z,1027.54
2016-12-07T10:26:01.316Z,1027.57
2016-12-07T10:27:11.224Z,1027.49
2016-12-07T10:28:20.213Z,1027.5
2016-12-07T10:29:29.219Z,1027.5
2016-12-07T10:30:38.529Z,1027.5
2016-12-07T10:31:47.515Z,1027.52
2016-12-07T10:32:56.829Z,1027.51
2016-12-07T10:34:06.444Z,1027.58
2016-12-07T10:35:15.743Z,1027.57
2016-12-07T10:36:25.057Z,1027.57
2016-12-07T10:37:34.061Z,1027.54
2016-12-07T10:38:43.152Z,1027.53
2016-12-07T10:39:52.144Z,1027.54
2016-12-07T10:41:01.158Z,1027.5
2016-12-07T10:42:10.158Z,1027.52
2016-12-07T10:43:19.143Z,1027.56
2016-12-07T10:44:27.816Z,1027.56
2016-12-07T10:45:36.530Z,1027.54
2016-12-07T10:46:45.844Z,1027.55
2016-12-07T10:47:54.841Z,1027.53
2016-12-07T10:49:03.865Z,1027.52
2016-12-07T10:50:13.496Z,1027.49
2016-12-07T10:51:22.513Z,1027.53
2016-12-07T10:52:32.119Z,1027.43
2016-12-07T10:53:40.842Z,1027.47
2016-12-07T10:54:50.168Z,1027.42
2016-12-07T10:55:59.203Z,1027.39
2016-12-07T10:57:08.829Z,1027.33
2016-12-07T10:58:17.527Z,1027.3
2016-12-07T10:59:26.241Z,1027.28
2016-12-07T11:00:35.255Z,1027.23
2016-12-07T11:01:44.398Z,1027.22
2016-12-07T11:02:53.702Z,1027.16
2016-12-07T11:04:02.716Z,1027.16
2016-12-07T11:05:12.043Z,1027.14
2016-12-07T11:06:21.076Z,1027.13
2016-12-07T11:07:30.984Z,1027.15
2016-12-07T11:08:40.041Z,1027.15
2016-12-07T11:09:48.778Z,1027.15
2016-12-07T11:10:57.803Z,1027.14
2016-12-07T11:12:07.410Z,1027.17
2016-12-07T11:13:16.419Z,1027.21
2016-12-07T11:14:25.106Z,1027.2
2016-12-07T11:15:34.510Z,1027.19
2016-12-07T11:16:43.815Z,1027.21
2016-12-07T11:17:52.527Z,1027.19
2016-12-07T11:19:02.158Z,1027.14
2016-12-07T11:20:10.871Z,1027.15
2016-12-07T11:21:19.615Z,1027.13
2016-12-07T11:22:28.618Z,1027.08
2016-12-07T11:23:37.602Z,1027.11
2016-12-07T11:24:47.508Z,1027.08
2016-12-07T11:25:56.227Z,1027.05
2016-12-07T11:27:05.245Z,1027.05
2016-12-07T11:28:13.967Z,1027.03
2016-12-07T11:29:23.579Z,1027
2016-12-07T11:30:32.286Z,1026.97
2016-12-07T11:31:41.601Z,1026.96
2016-12-07T11:32:50.593Z,1026.93
2016-12-07T11:33:59.333Z,1026.92
2016-12-07T11:35:08.641Z,1026.91
2016-12-07T11:36:17.423Z,1026.91
2016-12-07T11:37:26.113Z,1026.92
2016-12-07T11:38:34.819Z,1026.89
2016-12-07T11:39:43.498Z,1026.9
2016-12-07T11:40:52.493Z,1026.88
2016-12-07T11:42:02.147Z,1026.85
2016-12-07T11:43:11.479Z,1026.86
2016-12-07T11:44:20.474Z,1026.82
2016-12-07T11:45:29.184Z,1026.82
2016-12-07T11:46:38.202Z,1026.82
2016-12-07T11:47:47.663Z,1026.8
2016-12-07T11:48:57.285Z,1026.77
2016-12-07T11:50:06.619Z,1026.81
2016-12-07T11:51:16.239Z,1026.82
2016-12-07T11:52:24.936Z,1026.81
2016-12-07T11:53:34.402Z,1026.85
2016-12-07T11:54:43.422Z,1026.84
2016-12-07T11:55:52.124Z,1026.84
2016-12-07T11:57:01.146Z,1026.8
2016-12-07T11:58:10.185Z,1026.77
2016-12-07T11:59:20.091Z,1026.78
2016-12-07T12:00:28.784Z,1026.84
2016-12-07T12:01:37.795Z,1026.79
2016-12-07T12:02:47.452Z,1026.78
2016-12-07T12:03:56.470Z,1026.74
2016-12-07T12:05:05.471Z,1026.71
2016-12-07T12:06:14.209Z,1026.71
2016-12-07T12:07:23.219Z,1026.72
2016-12-07T12:08:32.206Z,1026.71
2016-12-07T12:09:40.893Z,1026.74
2016-12-07T12:10:49.611Z,1026.74
2016-12-07T12:11:58.319Z,1026.71
2016-12-07T12:13:07.043Z,1026.66
2016-12-07T12:14:16.354Z,1026.67
2016-12-07T12:15:25.346Z,1026.63
2016-12-07T12:16:34.645Z,1026.61
2016-12-07T12:17:43.653Z,1026.54
2016-12-07T12:18:52.653Z,1026.56
2016-12-07T12:20:01.355Z,1026.61
2016-12-07T12:21:10.391Z,1026.62
2016-12-07T12:22:19.122Z,1026.58
2016-12-07T12:23:27.824Z,1026.59
2016-12-07T12:24:37.162Z,1026.55
2016-12-07T12:25:46.205Z,1026.55
2016-12-07T12:26:55.562Z,1026.64
2016-12-07T12:28:04.560Z,1026.61
2016-12-07T12:29:13.561Z,1026.61
2016-12-07T12:30:22.872Z,1026.59
2016-12-07T12:31:31.563Z,1026.54
2016-12-07T12:32:40.241Z,1026.56
2016-12-07T12:33:49.860Z,1026.54
2016-12-07T12:34:58.547Z,1026.49
2016-12-07T12:36:07.557Z,1026.52
2016-12-07T12:37:16.860Z,1026.51
2016-12-07T12:38:25.851Z,1026.46
2016-12-07T12:39:34.840Z,1026.45
2016-12-07T12:40:43.531Z,1026.42
2016-12-07T12:41:52.537Z,1026.4
2016-12-07T12:43:01.842Z,1026.39
2016-12-07T12:44:11.148Z,1026.41
2016-12-07T12:45:19.851Z,1026.39
2016-12-07T12:46:28.838Z,1026.41
2016-12-07T12:47:37.526Z,1026.42
2016-12-07T12:48:46.216Z,1026.39
2016-12-07T12:49:54.911Z,1026.41
2016-12-07T12:51:04.055Z,1026.34
2016-12-07T12:52:13.066Z,1026.34
2016-12-07T12:53:22.671Z,1026.28
2016-12-07T12:54:31.368Z,1026.36
2016-12-07T12:55:40.372Z,1026.35
2016-12-07T12:56:49.461Z,1026.32
2016-12-07T12:57:58.776Z,1026.31
2016-12-07T12:59:07.471Z,1026.34
2016-12-07T13:00:16.162Z,1026.3
2016-12-07T13:01:25.808Z,1026.29
2016-12-07T13:02:35.419Z,1026.33
2016-12-07T13:03:44.416Z,1026.29
2016-12-07T13:04:53.105Z,1026.29
2016-12-07T13:06:02.116Z,1026.32
2016-12-07T13:07:10.813Z,1026.31
2016-12-07T13:08:20.494Z,1026.37
2016-12-07T13:09:29.491Z,1026.34
2016-12-07T13:10:38.487Z,1026.36
2016-12-07T13:11:47.796Z,1026.32
2016-12-07T13:12:57.470Z,1026.34
2016-12-07T13:14:06.954Z,1026.32
2016-12-07T13:15:15.961Z,1026.34
2016-12-07T13:16:24.962Z,1026.26
2016-12-07T13:17:33.968Z,1026.3
2016-12-07T13:18:43.585Z,1026.29
2016-12-07T13:19:52.315Z,1026.31
2016-12-07T13:21:01.630Z,1026.31
2016-12-07T13:22:10.978Z,1026.31
2016-12-07T13:23:19.678Z,1026.34
2016-12-07T13:24:28.676Z,1026.33
2016-12-07T13:25:38.139Z,1026.36
2016-12-07T13:26:47.156Z,1026.36
2016-12-07T13:27:56.480Z,1026.35
2016-12-07T13:29:05.179Z,1026.37
2016-12-07T13:30:14.181Z,1026.31
2016-12-07T13:31:23.522Z,1026.32
2016-12-07T13:32:32.838Z,1026.32
2016-12-07T13:33:41.892Z,1026.34
2016-12-07T13:34:50.890Z,1026.32
2016-12-07T13:35:59.576Z,1026.34
2016-12-07T13:37:08.687Z,1026.32
2016-12-07T13:38:17.679Z,1026.31
2016-12-07T13:39:26.362Z,1026.38
2016-12-07T13:40:35.112Z,1026.35
2016-12-07T13:41:44.731Z,1026.38
2016-12-07T13:42:53.727Z,1026.37
2016-12-07T13:44:03.024Z,1026.39
2016-12-07T13:45:12.019Z,1026.33
2016-12-07T13:46:21.016Z,1026.31
2016-12-07T13:47:30.330Z,1026.31
2016-12-07T13:48:39.806Z,1026.27
2016-12-07T13:49:49.116Z,1026.25
2016-12-07T13:50:58.127Z,1026.21
2016-12-07T13:52:07.734Z,1026.22
2016-12-07T13:53:17.055Z,1026.24
2016-12-07T13:54:26.099Z,1026.21
2016-12-07T13:55:34.786Z,1026.2
2016-12-07T13:56:43.780Z,1026.21
2016-12-07T13:57:52.497Z,1026.2
2016-12-07T13:59:01.510Z,1026.24